LFLX

Châteauroux-Déols "Marcel Dassault" Airport

Airport
ICAO code
LFLX
IATA Code
CHR
Summary
ICAO Region
EUR
ICAO Territory
Location

, Centre

Serving
Chateauroux
Elevation
529 ft
Coordinates
46° 51' 44" N , 1° 43' 50" E
Metar
Observation
LFLX 280500Z AUTO 24010KT 9000 OVC004/// ///TCU 09/09 Q1013 TEMPO BKN004
Station
Chateauroux
Date/Time
2022-11-28 05:00:00
Wind direction
240°
Wind speed
10 kts
Lowest cloud amount
overcast
Temperature
9°C
Dew point
9°C
Humidity
100%
QNH
1013 hPa
Weather condition
n/a

Runways

Designator Length Width Surface Rops
4/22 3500 45 CON Yes/Yes

Airport map

Aerial View

SKYbrary Partners:

Safety knowledge contributed by: